Time;durP1;ratioP1;P1;durP2;ratioP2;P2;SDS_P1;SDS_P2;PMS_P1;PMS_P2;Temp;Humidity;BMP_temperature;BMP_pressure;BME280_temperature;BME280_humidity;BME280_pressure;Samples;Min_cycle;Max_cycle;Signal;HPM_P1;HPM_P2
2022/08/10 00:00:59;;;;;;;;;;;21.10;49.00;;;;;;5042059;28;19925;-70
2022/08/10 00:03:25;;;;;;;;;;;21.10;49.00;;;;;;5038726;28;19937;-68
2022/08/10 00:05:53;;;;;;;;;;;21.10;49.10;;;;;;5049519;28;19925;-67
2022/08/10 00:08:20;;;;;;;;;;;21.00;49.30;;;;;;5045056;28;19952;-67
2022/08/10 00:10:48;;;;;;;;;;;20.90;49.40;;;;;;5037718;28;19933;-69
2022/08/10 00:13:15;;;;;;;;;;;20.90;49.50;;;;;;5034423;28;20291;-69
2022/08/10 00:15:42;;;;;;;;;;;20.90;49.80;;;;;;5041998;28;20390;-68
2022/08/10 00:18:08;;;;;;;;;;;20.70;50.00;;;;;;5048573;28;19932;-68
2022/08/10 00:20:35;;;;;;;;;;;20.70;49.90;;;;;;5046164;28;19925;-68
2022/08/10 00:23:02;;;;;;;;;;;20.60;50.00;;;;;;5047454;28;19939;-67
2022/08/10 00:25:29;;;;;;;;;;;20.60;50.20;;;;;;5047701;28;19925;-68
2022/08/10 00:27:57;;;;;;;;;;;20.60;50.30;;;;;;5046755;28;19925;-68
2022/08/10 00:30:23;;;;;;;;;;;20.60;50.60;;;;;;5041397;28;19971;-67
2022/08/10 00:32:50;;;;;;;;;;;20.60;50.60;;;;;;5043662;28;19933;-67
2022/08/10 00:35:17;;;;;;;;;;;20.60;50.80;;;;;;5039636;28;19931;-67
2022/08/10 00:37:43;;;;;;;;;;;20.50;50.90;;;;;;5035000;28;20291;-68
2022/08/10 00:40:11;;;;;;;;;;;20.50;50.80;;;;;;5035431;28;19925;-70
2022/08/10 00:42:38;;;;;;;;;;;20.50;50.60;;;;;;5042483;28;20228;-69
2022/08/10 00:45:06;;;;;;;;;;;20.50;50.40;;;;;;5035649;28;19931;-68
2022/08/10 00:47:33;;;;;;;;;;;20.50;50.40;;;;;;5032330;28;19929;-68
2022/08/10 00:50:00;;;;;;;;;;;20.50;50.40;;;;;;5042516;28;19924;-67
2022/08/10 00:52:29;;;;;;;;;;;20.40;50.30;;;;;;5048541;28;19993;-68
2022/08/10 00:54:56;;;;;;;;;;;20.40;50.50;;;;;;5048279;28;20564;-69
2022/08/10 00:57:24;;;;;;;;;;;20.40;50.70;;;;;;5042382;28;19924;-71
2022/08/10 00:59:51;;;;;;;;;;;20.30;50.90;;;;;;5047132;28;20364;-68
2022/08/10 01:02:19;;;;;;;;;;;20.30;51.00;;;;;;5041027;28;20395;-68
2022/08/10 01:04:46;;;;;;;;;;;20.30;51.10;;;;;;5037392;28;20382;-68
2022/08/10 01:07:20;;;;;;;;;;;20.30;51.10;;;;;;5042909;28;19925;-69
2022/08/10 01:09:51;;;;;;;;;;;20.20;51.20;;;;;;5045757;28;19963;-68
2022/08/10 01:12:23;;;;;;;;;;;20.20;51.30;;;;;;5044416;28;19925;-65
2022/08/10 01:14:52;;;;;;;;;;;20.20;51.60;;;;;;5041347;28;20385;-68
2022/08/10 01:17:25;;;;;;;;;;;20.10;51.60;;;;;;5039207;28;20026;-69
2022/08/10 01:19:56;;;;;;;;;;;20.10;51.80;;;;;;5043706;28;19925;-68
2022/08/10 01:22:37;;;;;;;;;;;20.10;51.90;;;;;;5028838;28;20421;-68
2022/08/10 01:25:19;;;;;;;;;;;20.10;52.00;;;;;;5034041;28;19937;-68
2022/08/10 01:27:51;;;;;;;;;;;20.10;52.20;;;;;;5049820;28;19978;-67
2022/08/10 01:30:19;;;;;;;;;;;20.00;52.30;;;;;;5047667;28;20024;-67
2022/08/10 01:32:48;;;;;;;;;;;20.00;52.30;;;;;;5033145;28;19979;-67
2022/08/10 01:35:18;;;;;;;;;;;20.00;52.50;;;;;;5042189;28;19941;-68
2022/08/10 01:37:46;;;;;;;;;;;19.90;52.70;;;;;;5046625;28;19955;-67
2022/08/10 01:40:15;;;;;;;;;;;19.90;52.90;;;;;;5042928;28;19928;-66
2022/08/10 01:42:45;;;;;;;;;;;19.90;53.10;;;;;;5047607;28;19928;-67
2022/08/10 01:45:12;;;;;;;;;;;19.90;53.10;;;;;;5045716;28;19925;-68
2022/08/10 01:50:28;;;;;;;;;;;19.70;53.30;;;;;;5046587;28;19924;-68
2022/08/10 01:52:58;;;;;;;;;;;19.70;53.40;;;;;;5043110;28;19929;-68
2022/08/10 01:55:26;;;;;;;;;;;19.60;53.60;;;;;;5046787;28;19948;-68
2022/08/10 01:57:53;;;;;;;;;;;19.60;53.80;;;;;;5043113;28;19940;-67
2022/08/10 02:00:20;;;;;;;;;;;19.60;53.90;;;;;;5044267;28;19936;-68
2022/08/10 02:02:50;;;;;;;;;;;19.50;54.00;;;;;;5047347;28;19978;-68
2022/08/10 02:05:17;;;;;;;;;;;19.50;54.10;;;;;;5044640;28;19929;-70
2022/08/10 02:07:46;;;;;;;;;;;19.40;54.40;;;;;;5036812;28;20314;-67
2022/08/10 02:10:14;;;;;;;;;;;19.40;54.40;;;;;;5040362;28;20419;-67
2022/08/10 02:12:42;;;;;;;;;;;19.30;54.70;;;;;;5050270;28;19932;-68
2022/08/10 02:15:12;;;;;;;;;;;19.20;54.80;;;;;;5044173;28;19936;-68
2022/08/10 02:17:41;;;;;;;;;;;19.20;54.90;;;;;;5046407;28;20019;-68
2022/08/10 02:20:10;;;;;;;;;;;19.20;55.00;;;;;;5041491;28;19936;-68
2022/08/10 02:22:38;;;;;;;;;;;19.20;55.10;;;;;;5048809;28;19940;-67
2022/08/10 02:25:06;;;;;;;;;;;19.10;55.30;;;;;;5046329;28;20363;-68
2022/08/10 02:27:33;;;;;;;;;;;19.10;55.40;;;;;;5050612;28;20310;-67
2022/08/10 02:30:00;;;;;;;;;;;19.10;55.50;;;;;;5049194;28;20312;-67
2022/08/10 02:32:26;;;;;;;;;;;19.00;55.60;;;;;;5050602;28;20098;-67
2022/08/10 02:34:55;;;;;;;;;;;19.00;55.50;;;;;;5048739;28;19986;-67
2022/08/10 02:37:24;;;;;;;;;;;18.90;55.40;;;;;;5047432;28;19932;-67
2022/08/10 02:39:51;;;;;;;;;;;19.00;55.30;;;;;;5043676;28;19944;-68
2022/08/10 02:42:22;;;;;;;;;;;18.90;55.20;;;;;;5046203;28;19925;-67
2022/08/10 02:44:51;;;;;;;;;;;18.90;55.20;;;;;;5044961;28;19924;-66
2022/08/10 02:47:21;;;;;;;;;;;19.00;55.10;;;;;;5040034;28;19937;-68
2022/08/10 02:49:49;;;;;;;;;;;18.90;55.10;;;;;;5038229;28;20055;-68
2022/08/10 02:52:19;;;;;;;;;;;18.90;55.20;;;;;;5038490;28;19936;-69
2022/08/10 02:54:49;;;;;;;;;;;18.80;55.10;;;;;;5038101;28;19942;-68
2022/08/10 02:57:18;;;;;;;;;;;18.80;55.30;;;;;;5036046;28;19952;-74
2022/08/10 02:59:49;;;;;;;;;;;18.80;55.30;;;;;;5036623;28;20015;-68
2022/08/10 03:02:25;;;;;;;;;;;18.90;55.30;;;;;;5042874;28;19929;-68
2022/08/10 03:04:54;;;;;;;;;;;18.90;55.30;;;;;;5048678;28;19978;-68
2022/08/10 03:07:22;;;;;;;;;;;18.90;55.60;;;;;;5050719;28;19955;-67
2022/08/10 03:09:50;;;;;;;;;;;18.80;55.80;;;;;;5038408;28;19940;-67
2022/08/10 03:12:17;;;;;;;;;;;18.70;56.00;;;;;;5046819;28;20032;-68
2022/08/10 03:14:44;;;;;;;;;;;18.70;56.20;;;;;;5047505;28;19933;-68
2022/08/10 03:17:12;;;;;;;;;;;18.60;56.40;;;;;;5047680;28;20025;-66
2022/08/10 03:19:40;;;;;;;;;;;18.60;56.40;;;;;;5047487;28;19935;-69
2022/08/10 03:22:07;;;;;;;;;;;18.60;56.60;;;;;;5049259;28;20298;-70
2022/08/10 03:24:34;;;;;;;;;;;18.60;56.70;;;;;;5048251;28;19936;-69
2022/08/10 03:27:03;;;;;;;;;;;18.60;56.80;;;;;;5051484;28;20002;-68
2022/08/10 03:29:31;;;;;;;;;;;18.50;56.90;;;;;;5050447;28;19924;-66
2022/08/10 03:31:58;;;;;;;;;;;18.40;57.10;;;;;;5050718;28;19925;-67
2022/08/10 03:34:26;;;;;;;;;;;18.40;57.20;;;;;;5046993;28;19932;-67
2022/08/10 03:36:53;;;;;;;;;;;18.30;57.40;;;;;;5046759;28;19939;-70
2022/08/10 03:39:20;;;;;;;;;;;18.30;57.60;;;;;;5049450;28;19931;-68
2022/08/10 03:41:48;;;;;;;;;;;18.30;57.70;;;;;;5050614;28;19924;-67
2022/08/10 03:44:19;;;;;;;;;;;18.20;57.90;;;;;;5048520;28;19968;-68
2022/08/10 03:46:46;;;;;;;;;;;18.20;58.00;;;;;;5047099;28;19970;-68
2022/08/10 03:49:14;;;;;;;;;;;18.20;58.20;;;;;;5051731;28;19924;-68
2022/08/10 03:51:41;;;;;;;;;;;18.10;58.20;;;;;;5041169;28;19924;-68
2022/08/10 03:54:08;;;;;;;;;;;18.10;58.50;;;;;;5045981;28;19929;-67
2022/08/10 03:56:36;;;;;;;;;;;18.10;58.60;;;;;;5047182;28;19936;-67
2022/08/10 03:59:03;;;;;;;;;;;18.10;58.70;;;;;;5048122;28;19924;-68
2022/08/10 04:01:31;;;;;;;;;;;18.10;58.70;;;;;;5044177;28;19925;-69
2022/08/10 04:03:58;;;;;;;;;;;18.00;58.90;;;;;;5046515;28;19949;-67
2022/08/10 04:06:25;;;;;;;;;;;17.90;59.20;;;;;;5047661;28;19964;-69
2022/08/10 04:08:52;;;;;;;;;;;17.90;59.30;;;;;;5045349;28;19932;-68
2022/08/10 04:11:19;;;;;;;;;;;17.90;59.60;;;;;;5036267;28;20306;-69
2022/08/10 04:13:45;;;;;;;;;;;17.80;59.70;;;;;;5033305;28;20380;-68
2022/08/10 04:16:12;;;;;;;;;;;17.80;59.70;;;;;;5040863;28;19932;-67
2022/08/10 04:18:40;;;;;;;;;;;17.80;59.80;;;;;;5042859;28;19957;-68
2022/08/10 04:21:09;;;;;;;;;;;17.70;60.00;;;;;;5048772;28;19932;-69
2022/08/10 04:23:38;;;;;;;;;;;17.80;60.00;;;;;;5049986;28;20314;-69
2022/08/10 04:26:04;;;;;;;;;;;17.70;60.20;;;;;;5046305;28;19925;-69
2022/08/10 04:28:31;;;;;;;;;;;17.70;60.30;;;;;;5046600;28;19932;-69
2022/08/10 04:30:58;;;;;;;;;;;17.70;60.40;;;;;;5036607;28;19935;-69
2022/08/10 04:33:26;;;;;;;;;;;17.70;60.50;;;;;;5044288;28;19925;-69
2022/08/10 04:35:56;;;;;;;;;;;17.70;60.50;;;;;;5043714;28;20319;-69
2022/08/10 04:38:24;;;;;;;;;;;17.70;60.60;;;;;;5041278;28;19931;-69
2022/08/10 04:40:51;;;;;;;;;;;17.60;60.60;;;;;;5045748;28;19935;-68
2022/08/10 04:43:18;;;;;;;;;;;17.70;60.40;;;;;;5042846;28;19933;-70
2022/08/10 04:45:45;;;;;;;;;;;17.70;60.60;;;;;;5044968;28;19995;-68
2022/08/10 04:48:11;;;;;;;;;;;17.70;60.80;;;;;;5044440;28;19931;-67
2022/08/10 04:50:38;;;;;;;;;;;17.70;60.90;;;;;;5049181;28;19939;-66
2022/08/10 04:53:06;;;;;;;;;;;17.70;60.90;;;;;;5046186;28;20015;-66
2022/08/10 04:55:33;;;;;;;;;;;17.60;61.10;;;;;;5041975;28;19925;-68
2022/08/10 04:58:00;;;;;;;;;;;17.60;61.30;;;;;;5046775;28;19925;-69
2022/08/10 05:00:27;;;;;;;;;;;17.70;61.40;;;;;;5045206;28;19925;-68
2022/08/10 05:02:53;;;;;;;;;;;17.60;61.50;;;;;;5041609;28;19925;-69
2022/08/10 05:05:20;;;;;;;;;;;17.60;61.50;;;;;;5033034;28;19975;-69
2022/08/10 05:07:47;;;;;;;;;;;17.70;61.50;;;;;;5040777;28;19932;-69
2022/08/10 05:10:15;;;;;;;;;;;17.70;61.50;;;;;;5047476;28;19925;-69
2022/08/10 05:12:41;;;;;;;;;;;17.70;61.50;;;;;;5042539;28;19956;-68
2022/08/10 05:15:09;;;;;;;;;;;17.80;61.40;;;;;;5040365;28;19929;-68
2022/08/10 05:17:36;;;;;;;;;;;17.70;61.40;;;;;;5041360;28;20031;-70
2022/08/10 05:20:04;;;;;;;;;;;17.70;61.50;;;;;;5048362;28;19939;-69
2022/08/10 05:22:30;;;;;;;;;;;17.80;61.60;;;;;;5045570;28;20397;-70
2022/08/10 05:24:57;;;;;;;;;;;17.70;61.50;;;;;;5048848;28;19924;-69
2022/08/10 05:27:25;;;;;;;;;;;17.80;61.30;;;;;;5048232;28;19933;-69
2022/08/10 05:29:52;;;;;;;;;;;17.90;61.00;;;;;;5046484;28;19948;-70
2022/08/10 05:32:19;;;;;;;;;;;17.90;61.00;;;;;;5038990;28;19994;-69
2022/08/10 05:34:45;;;;;;;;;;;17.90;60.90;;;;;;5043681;28;19937;-68
2022/08/10 05:37:13;;;;;;;;;;;17.90;61.00;;;;;;5044819;28;20303;-68
2022/08/10 05:39:40;;;;;;;;;;;18.00;61.00;;;;;;5042874;28;19929;-68
2022/08/10 05:42:07;;;;;;;;;;;18.10;60.60;;;;;;5038806;28;19925;-69
2022/08/10 05:44:35;;;;;;;;;;;18.10;60.30;;;;;;5036977;28;19933;-69
2022/08/10 05:47:02;;;;;;;;;;;18.20;60.20;;;;;;5046589;28;19925;-70
2022/08/10 05:49:29;;;;;;;;;;;18.20;60.30;;;;;;5045931;28;19940;-69
2022/08/10 05:51:56;;;;;;;;;;;18.20;60.40;;;;;;5042799;28;20146;-69
2022/08/10 05:54:24;;;;;;;;;;;18.20;60.40;;;;;;5042541;28;19924;-70
2022/08/10 05:56:51;;;;;;;;;;;18.20;60.50;;;;;;5048476;28;19978;-70
2022/08/10 05:59:18;;;;;;;;;;;18.20;60.60;;;;;;5049438;28;19931;-68
2022/08/10 06:01:48;;;;;;;;;;;18.30;60.60;;;;;;5050132;28;19925;-70
2022/08/10 06:04:17;;;;;;;;;;;18.30;60.50;;;;;;5045269;28;20251;-69
2022/08/10 06:06:46;;;;;;;;;;;18.30;60.40;;;;;;5044322;28;20573;-68
2022/08/10 06:09:14;;;;;;;;;;;18.40;60.30;;;;;;5045677;28;20275;-68
2022/08/10 06:11:44;;;;;;;;;;;18.50;59.90;;;;;;5049749;28;19931;-68
2022/08/10 06:16:59;;;;;;;;;;;18.50;60.10;;;;;;5047153;28;19921;-69
2022/08/10 06:19:27;;;;;;;;;;;18.60;59.80;;;;;;5053585;28;19924;-68
2022/08/10 06:21:56;;;;;;;;;;;18.60;59.80;;;;;;5040556;28;19925;-71
2022/08/10 06:24:25;;;;;;;;;;;18.70;59.70;;;;;;5044876;28;20379;-67
2022/08/10 06:26:52;;;;;;;;;;;18.70;59.40;;;;;;5046322;28;19940;-67
2022/08/10 06:29:19;;;;;;;;;;;18.80;59.00;;;;;;5051105;28;19931;-67
2022/08/10 06:31:48;;;;;;;;;;;18.90;59.00;;;;;;5051464;28;19924;-68
2022/08/10 06:34:17;;;;;;;;;;;19.00;58.50;;;;;;5050812;28;20010;-68
2022/08/10 06:36:44;;;;;;;;;;;19.10;58.80;;;;;;5045014;28;19936;-69
2022/08/10 06:39:11;;;;;;;;;;;19.20;58.40;;;;;;5049563;28;20366;-69
2022/08/10 06:41:41;;;;;;;;;;;19.30;58.30;;;;;;5049378;28;20011;-69
2022/08/10 06:44:10;;;;;;;;;;;19.40;58.10;;;;;;5048148;28;19925;-70
2022/08/10 06:46:39;;;;;;;;;;;19.60;58.10;;;;;;5044727;28;20371;-68
2022/08/10 06:49:09;;;;;;;;;;;19.70;57.90;;;;;;5053748;28;20425;-69
2022/08/10 06:51:38;;;;;;;;;;;19.80;57.10;;;;;;5049704;28;19936;-68
2022/08/10 06:54:06;;;;;;;;;;;19.90;57.30;;;;;;5036192;28;19925;-69
2022/08/10 06:56:34;;;;;;;;;;;20.10;56.90;;;;;;5045836;28;19935;-70
2022/08/10 06:59:03;;;;;;;;;;;20.20;56.40;;;;;;5044743;28;19933;-70
2022/08/10 07:01:32;;;;;;;;;;;20.40;56.30;;;;;;5046376;28;20016;-69
2022/08/10 07:04:01;;;;;;;;;;;20.60;55.80;;;;;;5048189;28;19932;-68
2022/08/10 07:06:29;;;;;;;;;;;20.70;55.40;;;;;;5040347;28;19925;-68
2022/08/10 07:08:58;;;;;;;;;;;20.90;55.70;;;;;;5043593;28;19925;-69
2022/08/10 07:11:26;;;;;;;;;;;21.10;55.80;;;;;;5043870;28;19959;-68
2022/08/10 07:13:55;;;;;;;;;;;21.10;55.00;;;;;;5040582;28;20382;-70
2022/08/10 07:16:27;;;;;;;;;;;21.30;54.20;;;;;;5049884;28;19925;-69
2022/08/10 07:18:56;;;;;;;;;;;21.50;54.00;;;;;;5042407;28;19925;-70
2022/08/10 07:21:25;;;;;;;;;;;21.70;53.40;;;;;;5052465;28;19931;-70
2022/08/10 07:23:52;;;;;;;;;;;21.80;53.70;;;;;;5045704;28;20019;-68
2022/08/10 07:26:21;;;;;;;;;;;22.00;52.90;;;;;;5051239;28;19925;-70
2022/08/10 07:28:49;;;;;;;;;;;22.10;52.70;;;;;;5047563;28;20102;-70
2022/08/10 07:31:17;;;;;;;;;;;22.30;51.80;;;;;;5050199;28;19929;-69
2022/08/10 07:33:45;;;;;;;;;;;22.50;51.70;;;;;;5048429;28;19924;-70
2022/08/10 07:36:12;;;;;;;;;;;22.60;51.30;;;;;;5038684;28;19925;-69
2022/08/10 07:38:40;;;;;;;;;;;22.80;50.70;;;;;;5048812;28;19924;-69
2022/08/10 07:41:07;;;;;;;;;;;23.00;50.30;;;;;;5042899;28;19925;-69
2022/08/10 07:43:37;;;;;;;;;;;23.10;49.40;;;;;;5040133;28;19925;-68
2022/08/10 07:46:04;;;;;;;;;;;23.20;49.70;;;;;;5045627;28;19924;-68
2022/08/10 07:48:33;;;;;;;;;;;23.40;48.90;;;;;;5045432;28;19948;-70
2022/08/10 07:51:01;;;;;;;;;;;23.60;48.60;;;;;;5043111;28;19929;-69
2022/08/10 07:53:31;;;;;;;;;;;23.60;48.80;;;;;;5046618;28;19931;-69
2022/08/10 07:55:59;;;;;;;;;;;23.80;48.20;;;;;;5043167;28;19925;-68
2022/08/10 07:58:29;;;;;;;;;;;23.90;47.70;;;;;;5043464;28;19925;-69
2022/08/10 08:00:58;;;;;;;;;;;24.00;47.00;;;;;;5042738;28;19924;-62
2022/08/10 08:03:27;;;;;;;;;;;24.20;46.50;;;;;;5036338;28;19925;-62
2022/08/10 08:05:54;;;;;;;;;;;24.30;45.30;;;;;;5043929;28;19928;-62
2022/08/10 08:08:21;;;;;;;;;;;24.40;45.60;;;;;;5040629;28;19929;-61
2022/08/10 08:10:48;;;;;;;;;;;24.50;46.00;;;;;;5046092;28;19963;-62
2022/08/10 08:13:16;;;;;;;;;;;24.60;46.10;;;;;;5038479;28;19935;-62
2022/08/10 08:15:43;;;;;;;;;;;24.70;45.20;;;;;;5037565;28;19929;-62
2022/08/10 08:18:12;;;;;;;;;;;24.80;44.90;;;;;;5040779;28;19928;-62
2022/08/10 08:20:39;;;;;;;;;;;24.90;44.60;;;;;;5038579;28;19925;-63
2022/08/10 08:23:06;;;;;;;;;;;25.10;44.70;;;;;;5038065;28;19975;-64
2022/08/10 08:25:33;;;;;;;;;;;25.10;44.50;;;;;;5041085;28;19924;-63
2022/08/10 08:28:01;;;;;;;;;;;25.30;44.20;;;;;;5037503;28;19975;-62
2022/08/10 08:30:28;;;;;;;;;;;25.40;43.90;;;;;;5031399;28;20008;-62
2022/08/10 08:35:26;;;;;;;;;;;25.60;43.30;;;;;;5055440;28;20553;-70
2022/08/10 08:37:53;;;;;;;;;;;25.70;43.50;;;;;;5062018;28;19925;-70
2022/08/10 08:40:23;;;;;;;;;;;25.80;43.70;;;;;;5070065;28;19925;-69
2022/08/10 08:43:14;;;;;;;;;;;25.90;43.60;;;;;;5068392;28;19928;-70
2022/08/10 08:45:46;;;;;;;;;;;26.00;43.50;;;;;;5059152;28;19928;-70
2022/08/10 08:48:30;;;;;;;;;;;26.20;42.80;;;;;;5068246;28;19924;-69
2022/08/10 08:51:03;;;;;;;;;;;26.30;43.30;;;;;;5078591;28;19932;-71
2022/08/10 08:53:37;;;;;;;;;;;26.40;42.30;;;;;;5075445;28;20428;-69
2022/08/10 08:56:07;;;;;;;;;;;26.50;42.20;;;;;;5060514;28;20036;-70
2022/08/10 08:58:43;;;;;;;;;;;26.60;41.80;;;;;;5065932;28;19935;-70
2022/08/10 09:01:19;;;;;;;;;;;26.80;41.20;;;;;;5059792;28;19954;-71
2022/08/10 09:03:51;;;;;;;;;;;26.90;40.90;;;;;;5071347;28;19924;-70
2022/08/10 09:06:42;;;;;;;;;;;27.00;40.70;;;;;;5062727;28;19939;-71
2022/08/10 09:09:20;;;;;;;;;;;27.10;40.40;;;;;;5065094;28;19929;-70
2022/08/10 09:11:53;;;;;;;;;;;27.20;39.70;;;;;;5076692;28;19930;-71
2022/08/10 09:14:22;;;;;;;;;;;27.20;39.60;;;;;;5062138;28;19931;-71
2022/08/10 09:16:53;;;;;;;;;;;27.40;39.40;;;;;;5065856;28;19931;-70
2022/08/10 09:19:24;;;;;;;;;;;27.40;38.70;;;;;;5068796;28;19924;-69
2022/08/10 09:21:57;;;;;;;;;;;27.40;38.20;;;;;;5065480;28;19932;-70
2022/08/10 09:24:27;;;;;;;;;;;27.40;38.30;;;;;;5068873;28;20464;-71
2022/08/10 09:26:56;;;;;;;;;;;27.30;38.20;;;;;;5072067;28;19924;-72
2022/08/10 09:29:25;;;;;;;;;;;27.20;38.20;;;;;;5068700;28;20373;-71
2022/08/10 09:31:55;;;;;;;;;;;27.30;38.00;;;;;;5064816;28;20223;-70
2022/08/10 09:34:24;;;;;;;;;;;27.20;38.10;;;;;;5066278;28;19924;-70
2022/08/10 09:36:58;;;;;;;;;;;27.20;38.00;;;;;;5062737;28;19971;-70
2022/08/10 09:39:29;;;;;;;;;;;27.20;38.10;;;;;;5063350;28;19931;-72
2022/08/10 09:42:05;;;;;;;;;;;27.10;38.00;;;;;;5064206;28;21388;-71
2022/08/10 09:44:35;;;;;;;;;;;27.00;37.90;;;;;;5068987;28;19932;-71
2022/08/10 09:47:11;;;;;;;;;;;27.10;37.90;;;;;;5058931;28;19924;-70
2022/08/10 09:49:40;;;;;;;;;;;27.10;38.10;;;;;;5069813;28;20520;-70
2022/08/10 09:52:14;;;;;;;;;;;27.00;38.10;;;;;;5063554;28;20362;-70
2022/08/10 09:54:48;;;;;;;;;;;26.90;38.30;;;;;;5068177;28;19924;-69
2022/08/10 09:57:18;;;;;;;;;;;26.90;38.20;;;;;;5061483;28;19925;-70
2022/08/10 09:59:52;;;;;;;;;;;26.90;38.40;;;;;;5060547;28;20551;-69
2022/08/10 10:02:26;;;;;;;;;;;26.80;38.50;;;;;;5056959;28;19929;-69
2022/08/10 10:04:59;;;;;;;;;;;26.80;37.70;;;;;;5060398;28;19955;-71
2022/08/10 10:07:28;;;;;;;;;;;26.80;37.80;;;;;;5071366;28;19993;-72
2022/08/10 10:09:57;;;;;;;;;;;26.80;37.50;;;;;;5068860;28;19924;-71
2022/08/10 10:12:26;;;;;;;;;;;26.80;38.10;;;;;;5077545;28;20412;-70
2022/08/10 10:17:48;;;;;;;;;;;26.80;38.00;;;;;;5068776;28;19951;-72
2022/08/10 10:20:20;;;;;;;;;;;26.90;37.90;;;;;;5068229;28;19925;-70
2022/08/10 10:22:54;;;;;;;;;;;26.80;38.10;;;;;;5065230;28;19929;-70
2022/08/10 10:25:26;;;;;;;;;;;26.80;38.20;;;;;;5070094;28;19932;-70
2022/08/10 10:28:02;;;;;;;;;;;27.00;38.10;;;;;;5066257;28;19925;-71
2022/08/10 10:30:32;;;;;;;;;;;27.10;38.20;;;;;;5062316;28;19967;-71
2022/08/10 10:33:02;;;;;;;;;;;27.20;38.00;;;;;;5067253;28;19928;-70
2022/08/10 10:35:32;;;;;;;;;;;27.30;37.40;;;;;;5025527;28;19925;-72
2022/08/10 10:38:01;;;;;;;;;;;27.30;36.90;;;;;;5025399;28;19925;-71
2022/08/10 10:40:32;;;;;;;;;;;27.30;36.10;;;;;;5025471;28;20018;-70
2022/08/10 10:43:04;;;;;;;;;;;27.40;36.10;;;;;;5025774;28;19929;-71
2022/08/10 10:45:34;;;;;;;;;;;27.50;35.80;;;;;;5025822;28;20453;-71
2022/08/10 10:48:06;;;;;;;;;;;27.60;35.90;;;;;;5018201;28;19929;-71
2022/08/10 10:50:38;;;;;;;;;;;27.70;36.50;;;;;;5029039;28;19931;-70
2022/08/10 10:53:10;;;;;;;;;;;27.70;35.80;;;;;;5025289;28;19972;-71
2022/08/10 10:55:41;;;;;;;;;;;27.80;36.00;;;;;;5030751;28;19925;-70
2022/08/10 10:58:14;;;;;;;;;;;27.80;35.70;;;;;;5025589;28;20655;-70
2022/08/10 11:00:43;;;;;;;;;;;27.80;35.20;;;;;;5012876;28;19925;-71
2022/08/10 11:03:17;;;;;;;;;;;27.80;35.00;;;;;;5026549;28;19925;-69
2022/08/10 11:05:46;;;;;;;;;;;27.70;35.40;;;;;;5021020;28;19925;-71
2022/08/10 11:08:16;;;;;;;;;;;27.80;35.60;;;;;;5020624;28;19926;-72
2022/08/10 11:10:45;;;;;;;;;;;27.80;35.50;;;;;;5026635;28;20298;-71
2022/08/10 11:13:18;;;;;;;;;;;27.80;35.40;;;;;;5025492;28;20682;-70
2022/08/10 11:15:48;;;;;;;;;;;27.80;35.60;;;;;;5021063;28;19925;-70
2022/08/10 11:18:21;;;;;;;;;;;27.80;35.50;;;;;;5021957;28;19933;-71
2022/08/10 11:20:51;;;;;;;;;;;27.80;35.70;;;;;;5024943;28;19929;-71
2022/08/10 11:23:26;;;;;;;;;;;27.90;35.00;;;;;;5030154;28;19925;-70
2022/08/10 11:25:57;;;;;;;;;;;27.90;35.30;;;;;;5022030;28;20047;-71
2022/08/10 11:28:30;;;;;;;;;;;28.00;34.90;;;;;;5024769;28;19925;-72
2022/08/10 11:31:01;;;;;;;;;;;28.10;34.10;;;;;;5028213;28;19925;-71
2022/08/10 11:33:31;;;;;;;;;;;28.30;34.30;;;;;;5032878;28;19955;-71
2022/08/10 11:36:01;;;;;;;;;;;28.40;34.20;;;;;;5064107;28;19986;-69
2022/08/10 11:38:32;;;;;;;;;;;28.50;34.10;;;;;;5062369;28;19932;-71
2022/08/10 11:41:04;;;;;;;;;;;28.60;34.20;;;;;;5065240;28;19929;-70
2022/08/10 11:43:34;;;;;;;;;;;28.70;34.00;;;;;;5070873;28;19931;-72
2022/08/10 11:46:05;;;;;;;;;;;28.80;33.40;;;;;;5066444;28;19924;-71
2022/08/10 11:48:35;;;;;;;;;;;29.00;32.80;;;;;;5072649;28;19943;-70
2022/08/10 11:51:04;;;;;;;;;;;28.90;32.60;;;;;;5078460;28;19928;-69
2022/08/10 11:53:36;;;;;;;;;;;28.80;31.80;;;;;;5064540;28;20297;-69
2022/08/10 11:56:05;;;;;;;;;;;28.80;32.40;;;;;;5073141;28;20296;-70
2022/08/10 12:01:20;;;;;;;;;;;29.00;32.20;;;;;;5063067;28;19924;-70
2022/08/10 12:03:47;;;;;;;;;;;29.10;31.50;;;;;;5070795;28;20161;-72
2022/08/10 12:06:16;;;;;;;;;;;29.20;32.10;;;;;;5074263;28;19924;-69
2022/08/10 12:08:45;;;;;;;;;;;29.30;32.10;;;;;;5075066;28;19935;-70
2022/08/10 12:11:14;;;;;;;;;;;29.30;32.20;;;;;;5067167;28;20028;-70
2022/08/10 12:13:43;;;;;;;;;;;29.30;32.20;;;;;;5074114;28;19928;-71
2022/08/10 12:16:12;;;;;;;;;;;29.40;32.40;;;;;;5059544;28;19932;-69
2022/08/10 12:18:44;;;;;;;;;;;29.30;31.90;;;;;;5064026;28;20411;-69
2022/08/10 12:21:13;;;;;;;;;;;29.40;31.80;;;;;;5070436;28;20014;-69
2022/08/10 12:23:43;;;;;;;;;;;29.50;31.50;;;;;;5065568;28;19928;-68
2022/08/10 12:26:13;;;;;;;;;;;29.60;30.70;;;;;;5064390;28;20419;-69
2022/08/10 12:28:43;;;;;;;;;;;29.60;30.50;;;;;;5065087;28;19925;-70
2022/08/10 12:31:11;;;;;;;;;;;29.60;29.70;;;;;;5065304;28;20290;-71
2022/08/10 12:33:40;;;;;;;;;;;29.60;30.30;;;;;;5063373;28;19931;-70
2022/08/10 12:36:11;;;;;;;;;;;29.70;30.20;;;;;;5072366;28;19924;-70
2022/08/10 12:38:40;;;;;;;;;;;29.80;30.00;;;;;;5061636;28;19925;-70
2022/08/10 12:41:13;;;;;;;;;;;29.80;30.40;;;;;;5066810;28;19940;-69
2022/08/10 12:43:43;;;;;;;;;;;29.80;29.60;;;;;;5074688;28;19929;-69
2022/08/10 12:46:14;;;;;;;;;;;29.80;30.10;;;;;;5066846;28;19926;-71
2022/08/10 12:48:43;;;;;;;;;;;29.70;29.50;;;;;;5072600;28;19933;-71
2022/08/10 12:51:13;;;;;;;;;;;29.70;29.50;;;;;;5075528;28;19924;-71
2022/08/10 12:53:48;;;;;;;;;;;29.70;30.20;;;;;;5065830;28;19960;-70
2022/08/10 12:56:23;;;;;;;;;;;29.70;30.40;;;;;;5068816;28;20270;-69
2022/08/10 12:58:51;;;;;;;;;;;29.80;30.40;;;;;;5076128;28;19928;-70
2022/08/10 13:01:18;;;;;;;;;;;29.80;30.10;;;;;;5068212;28;20392;-71
2022/08/10 13:03:45;;;;;;;;;;;29.90;29.80;;;;;;5071420;28;19932;-68
2022/08/10 13:06:13;;;;;;;;;;;30.00;28.80;;;;;;5065256;28;20278;-71
2022/08/10 13:11:28;;;;;;;;;;;30.10;28.80;;;;;;5072220;28;19928;-71
2022/08/10 13:13:59;;;;;;;;;;;30.00;29.20;;;;;;5070016;28;19931;-70
2022/08/10 13:16:27;;;;;;;;;;;29.90;29.20;;;;;;5074889;28;19924;-70
2022/08/10 13:18:54;;;;;;;;;;;29.90;29.50;;;;;;5067899;28;19924;-70
2022/08/10 13:21:21;;;;;;;;;;;29.80;30.60;;;;;;5068548;28;19932;-71
2022/08/10 13:23:50;;;;;;;;;;;29.70;30.20;;;;;;5063930;28;19924;-68
2022/08/10 13:26:18;;;;;;;;;;;29.70;30.30;;;;;;5072596;28;19925;-70
2022/08/10 13:28:47;;;;;;;;;;;29.80;30.40;;;;;;5071314;28;19993;-69
2022/08/10 13:31:17;;;;;;;;;;;29.80;29.90;;;;;;5066620;28;19938;-70
2022/08/10 13:33:46;;;;;;;;;;;29.70;29.90;;;;;;5068809;28;19982;-70
2022/08/10 13:36:14;;;;;;;;;;;29.60;30.00;;;;;;5069306;28;19924;-70
2022/08/10 13:38:42;;;;;;;;;;;29.40;29.70;;;;;;5066294;28;19932;-71
2022/08/10 13:41:10;;;;;;;;;;;29.40;29.80;;;;;;5070083;28;19924;-68
2022/08/10 13:43:37;;;;;;;;;;;29.30;30.10;;;;;;5064476;28;19929;-69
2022/08/10 13:46:06;;;;;;;;;;;29.30;29.90;;;;;;5059800;28;20375;-71
2022/08/10 13:48:39;;;;;;;;;;;29.40;30.00;;;;;;5064901;28;19924;-71
2022/08/10 13:51:06;;;;;;;;;;;29.40;29.80;;;;;;5068037;28;19925;-70
2022/08/10 13:53:33;;;;;;;;;;;29.40;29.90;;;;;;5074939;28;19930;-69
2022/08/10 13:56:00;;;;;;;;;;;29.50;29.90;;;;;;5064521;28;19935;-70
2022/08/10 13:58:28;;;;;;;;;;;29.50;29.60;;;;;;5061142;28;19931;-69
2022/08/10 14:00:56;;;;;;;;;;;29.50;29.80;;;;;;5062961;28;20007;-70
2022/08/10 14:03:23;;;;;;;;;;;29.50;29.20;;;;;;5066290;28;19930;-69
2022/08/10 14:05:52;;;;;;;;;;;29.40;29.60;;;;;;5067566;28;19958;-70
2022/08/10 14:08:19;;;;;;;;;;;29.40;29.80;;;;;;5064118;28;20681;-69
2022/08/10 14:10:47;;;;;;;;;;;29.40;30.00;;;;;;5066245;28;19955;-68
2022/08/10 14:13:15;;;;;;;;;;;29.40;29.80;;;;;;5067816;28;20384;-70
2022/08/10 14:15:44;;;;;;;;;;;29.40;30.20;;;;;;5067727;28;19931;-69
2022/08/10 14:18:11;;;;;;;;;;;29.40;30.40;;;;;;5071476;28;19932;-69
2022/08/10 14:20:39;;;;;;;;;;;29.40;30.30;;;;;;5070083;28;19928;-68
2022/08/10 14:23:10;;;;;;;;;;;29.40;30.50;;;;;;5072984;28;19932;-70
2022/08/10 14:25:45;;;;;;;;;;;29.30;31.30;;;;;;5063378;28;19935;-68
2022/08/10 14:28:13;;;;;;;;;;;29.30;29.80;;;;;;5071442;28;19924;-70
2022/08/10 14:30:41;;;;;;;;;;;29.30;29.90;;;;;;5069631;28;19924;-69
2022/08/10 14:33:09;;;;;;;;;;;29.40;29.50;;;;;;5069498;28;19924;-68
2022/08/10 14:35:36;;;;;;;;;;;29.40;29.50;;;;;;5073667;28;19924;-69
2022/08/10 14:38:09;;;;;;;;;;;29.40;29.70;;;;;;5068172;28;19933;-68
2022/08/10 14:40:43;;;;;;;;;;;29.40;29.70;;;;;;5074666;28;20385;-70
2022/08/10 14:43:13;;;;;;;;;;;29.40;29.70;;;;;;5072106;28;19925;-70